createdAt,value
2023-03-30T00:00:29.384Z,8.27
2023-03-30T00:04:36.114Z,9.03
2023-03-30T00:08:38.100Z,9.10
2023-03-30T00:12:40.827Z,9.43
2023-03-30T00:16:42.762Z,8.87
2023-03-30T00:20:45.204Z,10.77
2023-03-30T00:24:47.059Z,9.47
2023-03-30T00:28:48.841Z,8.93
2023-03-30T00:32:50.693Z,9.57
2023-03-30T00:36:53.440Z,9.00
2023-03-30T00:40:59.887Z,8.57
2023-03-30T00:45:19.677Z,9.10
2023-03-30T00:49:21.776Z,8.47
2023-03-30T00:53:47.769Z,9.37
2023-03-30T00:57:49.526Z,9.07
2023-03-30T01:01:54.360Z,10.10
2023-03-30T01:05:57.133Z,10.23
2023-03-30T01:09:59.080Z,8.13
2023-03-30T01:14:04.252Z,9.30
2023-03-30T01:18:24.256Z,8.77
2023-03-30T01:22:39.328Z,8.77
2023-03-30T01:26:54.095Z,9.87
2023-03-30T01:31:29.833Z,10.97
2023-03-30T01:35:51.147Z,8.97
2023-03-30T01:40:26.391Z,9.53
2023-03-30T01:44:53.876Z,10.70
2023-03-30T01:49:13.287Z,9.83
2023-03-30T01:53:31.373Z,10.13
2023-03-30T01:57:46.327Z,11.20
2023-03-30T02:01:50.275Z,10.30
2023-03-30T02:05:53.400Z,10.10
2023-03-30T02:09:58.320Z,10.57
2023-03-30T02:14:00.573Z,11.40
2023-03-30T02:18:03.204Z,13.57
2023-03-30T02:22:06.457Z,11.33
2023-03-30T02:26:08.909Z,10.53
2023-03-30T02:30:11.184Z,12.10
2023-03-30T02:34:52.760Z,10.77
2023-03-30T02:39:01.227Z,13.33
2023-03-30T02:43:16.510Z,15.83
2023-03-30T02:47:28.709Z,12.87
2023-03-30T02:51:41.186Z,13.70
2023-03-30T02:56:19.265Z,14.57
2023-03-30T03:00:46.294Z,16.60
2023-03-30T03:04:48.320Z,15.83
2023-03-30T03:08:50.534Z,15.07
2023-03-30T03:12:52.372Z,15.87
2023-03-30T03:16:55.142Z,15.87
2023-03-30T03:20:58.228Z,16.10
2023-03-30T03:25:02.589Z,14.17
2023-03-30T03:29:04.486Z,16.10
2023-03-30T03:33:06.508Z,18.07
2023-03-30T03:37:08.286Z,18.67
2023-03-30T03:41:10.170Z,18.10
2023-03-30T03:45:12.340Z,18.07
2023-03-30T03:49:14.198Z,16.87
2023-03-30T03:53:16.275Z,18.27
2023-03-30T03:57:18.189Z,19.37
2023-03-30T04:01:23.154Z,18.30
2023-03-30T04:05:25.065Z,16.73
2023-03-30T04:09:30.005Z,16.80
2023-03-30T04:13:31.946Z,17.17
2023-03-30T04:17:35.681Z,19.10
2023-03-30T04:21:41.021Z,17.63
2023-03-30T04:25:42.776Z,16.80
2023-03-30T04:29:46.104Z,18.80
2023-03-30T04:33:53.166Z,17.63
2023-03-30T04:37:55.147Z,16.90
2023-03-30T04:41:57.199Z,15.37
2023-03-30T04:45:59.491Z,15.13
2023-03-30T04:50:01.819Z,17.37
2023-03-30T04:54:03.806Z,15.03
2023-03-30T04:58:05.945Z,16.73
2023-03-30T05:02:08.095Z,16.90
2023-03-30T05:06:11.479Z,17.00
2023-03-30T05:10:13.406Z,17.47
2023-03-30T05:14:15.510Z,16.30
2023-03-30T05:18:17.323Z,18.40
2023-03-30T05:22:19.288Z,15.97
2023-03-30T05:26:21.813Z,18.13
2023-03-30T05:30:26.623Z,15.90
2023-03-30T05:34:28.646Z,16.10
2023-03-30T05:38:30.766Z,16.53
2023-03-30T05:42:32.562Z,17.67
2023-03-30T05:46:34.620Z,17.40
2023-03-30T05:50:36.638Z,18.10
2023-03-30T05:54:38.558Z,18.60
2023-03-30T05:58:40.346Z,17.90
2023-03-30T06:02:42.229Z,15.33
2023-03-30T06:06:44.351Z,17.23
2023-03-30T06:10:53.698Z,18.33
2023-03-30T06:14:55.573Z,16.30
2023-03-30T06:18:57.375Z,17.03
2023-03-30T06:22:59.184Z,14.00
2023-03-30T06:27:03.047Z,15.57
2023-03-30T06:31:12.187Z,15.20
2023-03-30T06:35:15.735Z,14.43
2023-03-30T06:39:17.908Z,14.40
2023-03-30T06:43:22.401Z,15.90
2023-03-30T06:47:24.370Z,16.37
2023-03-30T06:51:26.556Z,16.90
2023-03-30T06:55:28.662Z,14.77
2023-03-30T06:59:32.517Z,15.47
2023-03-30T07:03:35.802Z,14.50
2023-03-30T07:07:37.766Z,14.37
2023-03-30T07:11:39.753Z,16.10
2023-03-30T07:15:41.925Z,16.67
2023-03-30T07:19:43.856Z,16.53
2023-03-30T07:23:45.794Z,14.10
2023-03-30T07:27:47.804Z,15.17
2023-03-30T07:31:49.639Z,13.83
2023-03-30T07:35:51.483Z,14.57
2023-03-30T07:39:53.514Z,15.73
2023-03-30T07:43:55.456Z,15.27
2023-03-30T07:47:57.529Z,14.30
2023-03-30T07:51:59.511Z,11.43
2023-03-30T07:56:05.714Z,9.37
2023-03-30T08:00:10.526Z,5.07
2023-03-30T08:04:13.601Z,6.30
2023-03-30T08:08:15.522Z,5.60
2023-03-30T08:12:17.580Z,5.37
2023-03-30T08:16:19.587Z,5.90
2023-03-30T08:20:21.621Z,4.87
2023-03-30T08:24:23.531Z,5.43
2023-03-30T08:28:25.902Z,6.27
2023-03-30T08:32:27.989Z,12.43
2023-03-30T08:36:30.138Z,13.10
2023-03-30T08:40:32.013Z,13.40
2023-03-30T08:44:39.852Z,14.23
2023-03-30T08:48:44.809Z,15.53
2023-03-30T08:52:46.698Z,14.23
2023-03-30T08:57:02.428Z,12.07
2023-03-30T09:01:16.584Z,16.30
2023-03-30T09:05:32.559Z,16.27
2023-03-30T09:09:41.608Z,14.83
2023-03-30T09:13:45.484Z,14.53
2023-03-30T09:18:23.086Z,17.50
2023-03-30T09:22:39.440Z,15.53
2023-03-30T09:27:20.044Z,17.20
2023-03-30T09:31:46.246Z,16.73
2023-03-30T09:36:18.688Z,16.07
2023-03-30T09:40:53.172Z,16.70
2023-03-30T09:45:30.707Z,13.43
2023-03-30T09:49:39.980Z,10.30
2023-03-30T09:53:43.016Z,8.07
2023-03-30T09:57:44.823Z,5.53
2023-03-30T10:01:49.354Z,7.03
2023-03-30T10:06:21.675Z,5.93
2023-03-30T10:10:26.562Z,6.27
2023-03-30T10:14:34.196Z,6.33
2023-03-30T10:18:41.897Z,7.40
2023-03-30T10:23:05.580Z,6.33
2023-03-30T10:27:13.591Z,7.40
2023-03-30T10:31:16.297Z,5.53
2023-03-30T10:35:30.849Z,5.37
2023-03-30T10:39:34.112Z,5.33
2023-03-30T10:43:36.026Z,5.50
2023-03-30T10:48:23.157Z,4.53
2023-03-30T10:53:18.833Z,4.77
2023-03-30T10:57:22.311Z,3.77
2023-03-30T11:01:49.400Z,3.73
2023-03-30T11:05:53.090Z,4.00
2023-03-30T11:09:58.604Z,4.77
2023-03-30T11:14:08.016Z,2.33
2023-03-30T11:18:24.677Z,2.77
2023-03-30T11:22:56.097Z,2.20
2023-03-30T11:27:05.363Z,7.53
2023-03-30T11:31:54.548Z,2.43
2023-03-30T11:36:03.497Z,4.07
2023-03-30T11:40:22.319Z,3.53
2023-03-30T11:44:26.319Z,2.70
2023-03-30T11:48:51.161Z,3.80
2023-03-30T11:52:59.718Z,3.53
2023-03-30T11:57:28.140Z,3.40
2023-03-30T12:02:17.625Z,3.07
2023-03-30T12:06:27.999Z,3.70
2023-03-30T12:10:39.211Z,5.67
2023-03-30T12:14:49.101Z,2.93
2023-03-30T12:19:13.006Z,3.23
2023-03-30T12:23:23.284Z,5.80
2023-03-30T12:27:27.527Z,3.97
2023-03-30T12:31:56.051Z,3.87
2023-03-30T12:36:00.442Z,4.63
2023-03-30T12:40:20.837Z,3.40
2023-03-30T12:44:44.642Z,4.30
2023-03-30T12:49:24.253Z,3.80
2023-03-30T12:54:08.450Z,4.93
2023-03-30T12:59:06.727Z,4.53
2023-03-30T13:03:46.033Z,4.70
2023-03-30T13:07:47.981Z,4.77
2023-03-30T13:11:50.160Z,5.20
2023-03-30T13:15:57.987Z,4.13
2023-03-30T13:20:29.690Z,4.40
2023-03-30T13:24:32.353Z,3.80
2023-03-30T13:29:00.435Z,3.53
2023-03-30T13:33:19.355Z,6.07
2023-03-30T13:38:04.460Z,4.67
2023-03-30T13:42:46.867Z,3.87
2023-03-30T13:47:25.817Z,8.17
2023-03-30T13:51:28.340Z,3.77
2023-03-30T13:55:33.466Z,5.03
2023-03-30T13:59:36.172Z,3.17
2023-03-30T14:03:58.658Z,3.47
2023-03-30T14:08:00.953Z,4.40
2023-03-30T14:12:03.053Z,3.13
2023-03-30T14:16:06.615Z,4.63
2023-03-30T14:20:39.414Z,3.60
2023-03-30T14:24:41.559Z,6.40
2023-03-30T14:28:44.004Z,3.87
2023-03-30T14:32:46.262Z,3.07
2023-03-30T14:36:48.365Z,2.83
2023-03-30T14:40:52.627Z,3.77
2023-03-30T14:45:01.563Z,2.87
2023-03-30T14:49:21.684Z,3.73
2023-03-30T14:53:33.042Z,4.97
2023-03-30T14:57:39.173Z,5.60
2023-03-30T15:01:44.306Z,2.90
2023-03-30T15:05:48.884Z,5.47
2023-03-30T15:09:55.256Z,5.53
2023-03-30T15:13:58.273Z,4.40
2023-03-30T15:18:00.613Z,3.67
2023-03-30T15:22:07.230Z,3.73
2023-03-30T15:26:09.961Z,2.77
2023-03-30T15:30:43.856Z,4.20
2023-03-30T15:35:29.530Z,5.60
2023-03-30T15:39:40.888Z,3.17
2023-03-30T15:44:19.222Z,3.30
2023-03-30T15:48:40.363Z,4.00
2023-03-30T15:52:47.702Z,1.33
2023-03-30T15:57:00.032Z,1.73
2023-03-30T16:01:03.050Z,2.03
2023-03-30T16:05:07.088Z,2.40
2023-03-30T16:09:09.174Z,2.23
2023-03-30T16:13:13.496Z,3.73
2023-03-30T16:17:15.589Z,3.90
2023-03-30T16:21:18.925Z,3.30
2023-03-30T16:25:26.021Z,1.80
2023-03-30T16:29:36.252Z,2.67
2023-03-30T16:33:38.153Z,1.57
2023-03-30T16:37:40.107Z,6.40
2023-03-30T16:41:43.085Z,1.67
2023-03-30T16:45:44.990Z,1.43
2023-03-30T16:49:47.424Z,3.07
2023-03-30T16:53:49.268Z,3.70
2023-03-30T16:57:51.809Z,1.50
2023-03-30T17:01:56.014Z,2.33
2023-03-30T17:05:58.274Z,2.00
2023-03-30T17:10:00.686Z,2.57
2023-03-30T17:14:02.763Z,3.80
2023-03-30T17:18:09.060Z,2.63
2023-03-30T17:22:11.065Z,1.83
2023-03-30T17:26:15.151Z,1.97
2023-03-30T17:30:33.201Z,1.53
2023-03-30T17:34:35.146Z,1.40
2023-03-30T17:38:38.019Z,2.77
2023-03-30T17:42:42.872Z,1.47
2023-03-30T17:46:53.125Z,1.37
2023-03-30T17:50:57.489Z,1.70
2023-03-30T17:54:59.420Z,1.97
2023-03-30T17:59:01.636Z,2.33
2023-03-30T18:03:12.710Z,1.93
2023-03-30T18:07:17.128Z,2.50
2023-03-30T18:11:19.254Z,1.40
2023-03-30T18:15:28.146Z,1.20
2023-03-30T18:19:30.168Z,2.53
2023-03-30T18:23:33.940Z,2.07
2023-03-30T18:27:36.012Z,1.93
2023-03-30T18:31:38.500Z,1.13
2023-03-30T18:35:41.668Z,2.63
2023-03-30T18:39:44.924Z,2.13
2023-03-30T18:43:49.578Z,2.23
2023-03-30T18:47:51.591Z,2.50
2023-03-30T18:51:56.545Z,2.07
2023-03-30T18:56:00.537Z,2.10
2023-03-30T19:00:08.702Z,2.13
2023-03-30T19:04:10.759Z,1.70
2023-03-30T19:08:18.572Z,1.83
2023-03-30T19:12:20.482Z,2.80
2023-03-30T19:16:22.715Z,2.37
2023-03-30T19:20:27.261Z,3.30
2023-03-30T19:24:32.011Z,1.67
2023-03-30T19:28:34.470Z,2.10
2023-03-30T19:32:40.056Z,1.57
2023-03-30T19:36:44.523Z,2.07
2023-03-30T19:40:46.573Z,2.13
2023-03-30T19:44:48.680Z,1.27
2023-03-30T19:48:50.829Z,1.97
2023-03-30T19:52:54.704Z,1.47
2023-03-30T19:56:57.499Z,2.83
2023-03-30T20:01:08.239Z,2.20
2023-03-30T20:05:10.449Z,1.23
2023-03-30T20:09:12.452Z,1.70
2023-03-30T20:13:26.789Z,1.33
2023-03-30T20:17:44.659Z,1.53
2023-03-30T20:21:49.672Z,1.63
2023-03-30T20:25:53.594Z,1.40
2023-03-30T20:29:58.007Z,2.63
2023-03-30T20:33:59.950Z,0.63
2023-03-30T20:38:04.586Z,1.17
2023-03-30T20:42:08.534Z,1.50
2023-03-30T20:46:14.042Z,1.47
2023-03-30T20:50:16.317Z,1.90
2023-03-30T20:54:18.864Z,1.90
2023-03-30T20:58:22.433Z,3.40
2023-03-30T21:02:24.697Z,3.17
2023-03-30T21:06:28.877Z,1.50
2023-03-30T21:10:30.982Z,3.17
2023-03-30T21:14:33.059Z,1.20
2023-03-30T21:18:35.666Z,2.60
2023-03-30T21:22:37.492Z,2.40
2023-03-30T21:26:40.452Z,0.93
2023-03-30T21:30:42.339Z,2.70
2023-03-30T21:34:44.260Z,0.93
2023-03-30T21:38:46.418Z,1.63
2023-03-30T21:42:48.218Z,1.60
2023-03-30T21:46:50.097Z,2.30
2023-03-30T21:51:01.549Z,1.53
2023-03-30T21:55:04.128Z,1.33
2023-03-30T21:59:06.001Z,1.30
2023-03-30T22:03:07.872Z,2.00
2023-03-30T22:07:09.950Z,1.43
2023-03-30T22:11:17.675Z,3.10
2023-03-30T22:15:21.748Z,1.67
2023-03-30T22:19:25.157Z,3.10
2023-03-30T22:23:27.158Z,2.70
2023-03-30T22:27:28.966Z,1.53
2023-03-30T22:31:30.923Z,2.67
2023-03-30T22:35:43.371Z,2.77
2023-03-30T22:39:45.510Z,2.57
2023-03-30T22:43:47.242Z,1.47
2023-03-30T22:47:49.113Z,3.97
2023-03-30T22:51:54.037Z,3.33
2023-03-30T22:55:55.900Z,1.60
2023-03-30T22:59:57.798Z,1.83
2023-03-30T23:03:59.974Z,2.20
2023-03-30T23:08:01.888Z,2.37
2023-03-30T23:12:04.606Z,4.03
2023-03-30T23:16:07.011Z,3.23
2023-03-30T23:20:12.331Z,5.80
2023-03-30T23:24:14.288Z,1.93
2023-03-30T23:28:16.563Z,2.70
2023-03-30T23:32:18.441Z,1.73
2023-03-30T23:36:21.759Z,1.97
2023-03-30T23:40:23.686Z,3.17
2023-03-30T23:44:25.488Z,3.33
2023-03-30T23:48:27.398Z,3.07
2023-03-30T23:52:29.236Z,2.33
2023-03-30T23:56:32.188Z,1.67
